createdAt,value
2018-10-03T00:00:58.093Z,10.67
2018-10-03T00:01:58.052Z,10.67
2018-10-03T00:02:58.111Z,10.76
2018-10-03T00:03:58.063Z,10.74
2018-10-03T00:04:58.066Z,10.71
2018-10-03T00:05:58.056Z,10.68
2018-10-03T00:06:58.076Z,10.73
2018-10-03T00:07:58.057Z,10.61
2018-10-03T00:08:58.055Z,10.60
2018-10-03T00:09:58.079Z,10.67
2018-10-03T00:10:58.207Z,10.66
2018-10-03T00:11:58.127Z,10.61
2018-10-03T00:12:58.098Z,10.66
2018-10-03T00:13:58.087Z,10.61
2018-10-03T00:14:58.095Z,10.63
2018-10-03T00:15:58.055Z,10.66
2018-10-03T00:16:58.046Z,10.63
2018-10-03T00:17:58.059Z,10.53
2018-10-03T00:18:58.076Z,10.55
2018-10-03T00:19:58.094Z,10.45
2018-10-03T00:20:58.089Z,10.41
2018-10-03T00:21:58.070Z,10.44
2018-10-03T00:22:58.092Z,10.45
2018-10-03T00:23:58.071Z,10.44
2018-10-03T00:24:58.108Z,10.42
2018-10-03T00:25:58.102Z,10.40
2018-10-03T00:26:58.099Z,10.36
2018-10-03T00:27:58.065Z,10.38
2018-10-03T00:28:58.079Z,10.33
2018-10-03T00:29:58.166Z,10.40
2018-10-03T00:30:58.067Z,10.36
2018-10-03T00:31:58.056Z,10.29
2018-10-03T00:32:58.057Z,10.27
2018-10-03T00:33:58.067Z,10.32
2018-10-03T00:34:58.065Z,10.30
2018-10-03T00:35:58.083Z,10.32
2018-10-03T00:36:58.090Z,10.36
2018-10-03T00:37:58.063Z,10.33
2018-10-03T00:38:58.069Z,10.33
2018-10-03T00:39:58.071Z,10.30
2018-10-03T00:40:58.079Z,10.36
2018-10-03T00:41:58.073Z,10.34
2018-10-03T00:42:58.086Z,10.36
2018-10-03T00:43:58.085Z,10.36
2018-10-03T00:44:58.090Z,10.42
2018-10-03T00:45:58.087Z,10.42
2018-10-03T00:46:58.142Z,10.51
2018-10-03T00:47:58.068Z,10.52
2018-10-03T00:48:58.085Z,10.66
2018-10-03T00:49:58.059Z,10.63
2018-10-03T00:50:58.084Z,10.52
2018-10-03T00:51:58.064Z,10.67
2018-10-03T00:52:58.086Z,10.66
2018-10-03T00:53:58.092Z,10.82
2018-10-03T00:54:58.086Z,10.82
2018-10-03T00:55:58.078Z,10.85
2018-10-03T00:56:58.081Z,10.82
2018-10-03T00:57:58.108Z,10.86
2018-10-03T00:58:58.097Z,10.89
2018-10-03T00:59:58.070Z,10.91
2018-10-03T01:00:58.071Z,10.92
2018-10-03T01:01:58.076Z,10.91
2018-10-03T01:02:58.065Z,10.94
2018-10-03T01:03:58.068Z,10.89
2018-10-03T01:04:58.092Z,11.00
2018-10-03T01:05:58.084Z,11.04
2018-10-03T01:06:58.084Z,11.02
2018-10-03T01:07:58.068Z,11.15
2018-10-03T01:08:58.102Z,11.11
2018-10-03T01:09:58.127Z,11.07
2018-10-03T01:10:58.096Z,11.10
2018-10-03T01:11:58.102Z,11.11
2018-10-03T01:12:58.113Z,11.15
2018-10-03T01:13:58.104Z,11.17
2018-10-03T01:14:58.106Z,11.17
2018-10-03T01:15:58.090Z,11.18
2018-10-03T01:16:58.092Z,11.18
2018-10-03T01:17:58.082Z,11.24
2018-10-03T01:18:58.079Z,11.25
2018-10-03T01:19:58.076Z,11.29
2018-10-03T01:20:58.085Z,11.25
2018-10-03T01:21:58.086Z,11.37
2018-10-03T01:22:58.092Z,11.37
2018-10-03T01:23:58.089Z,11.36
2018-10-03T01:24:58.096Z,11.43
2018-10-03T01:25:58.091Z,11.46
2018-10-03T01:26:58.090Z,11.40
2018-10-03T01:27:58.113Z,11.47
2018-10-03T01:28:58.100Z,11.40
2018-10-03T01:29:58.101Z,11.43
2018-10-03T01:30:58.092Z,11.52
2018-10-03T01:31:58.094Z,11.47
2018-10-03T01:32:58.109Z,11.51
2018-10-03T01:33:58.094Z,11.54
2018-10-03T01:34:58.121Z,11.52
2018-10-03T01:35:58.095Z,11.51
2018-10-03T01:36:58.128Z,11.46
2018-10-03T01:37:58.108Z,11.49
2018-10-03T01:38:58.107Z,11.58
2018-10-03T01:39:58.104Z,11.55
2018-10-03T01:40:58.131Z,11.55
2018-10-03T01:41:58.119Z,11.47
2018-10-03T01:42:58.094Z,11.55
2018-10-03T01:43:58.094Z,11.54
2018-10-03T01:44:58.102Z,11.61
2018-10-03T01:45:58.124Z,11.60
2018-10-03T01:46:58.121Z,11.60
2018-10-03T01:47:58.107Z,11.64
2018-10-03T01:48:58.107Z,11.69
2018-10-03T01:49:58.154Z,11.61
2018-10-03T01:50:58.148Z,11.62
2018-10-03T01:51:58.139Z,11.55
2018-10-03T01:52:58.311Z,11.65
2018-10-03T01:53:58.306Z,11.62
2018-10-03T01:54:58.264Z,11.60
2018-10-03T01:55:58.247Z,11.60
2018-10-03T01:56:58.175Z,11.57
2018-10-03T01:57:58.999Z,11.64
2018-10-03T01:58:58.239Z,11.70
2018-10-03T01:59:58.390Z,11.54
2018-10-03T02:00:58.400Z,11.57
2018-10-03T02:01:58.274Z,11.52
2018-10-03T02:02:58.269Z,11.51
2018-10-03T02:03:58.107Z,11.46
2018-10-03T02:04:58.142Z,11.55
2018-10-03T02:05:58.166Z,11.51
2018-10-03T02:06:58.123Z,11.58
2018-10-03T02:07:58.109Z,11.61
2018-10-03T02:08:58.161Z,11.49
2018-10-03T02:09:58.126Z,11.55
2018-10-03T02:10:58.142Z,11.60
2018-10-03T02:11:58.107Z,11.52
2018-10-03T02:12:58.124Z,11.62
2018-10-03T02:13:58.138Z,11.67
2018-10-03T02:14:58.130Z,11.64
2018-10-03T02:15:58.133Z,11.61
2018-10-03T02:16:58.142Z,11.60
2018-10-03T02:17:58.130Z,11.57
2018-10-03T02:18:58.113Z,11.65
2018-10-03T02:19:58.112Z,11.65
2018-10-03T02:20:58.123Z,11.70
2018-10-03T02:21:58.115Z,11.61
2018-10-03T02:22:58.121Z,11.60
2018-10-03T02:23:58.142Z,11.60
2018-10-03T02:24:58.122Z,11.67
2018-10-03T02:25:58.134Z,11.69
2018-10-03T02:26:58.126Z,11.67
2018-10-03T02:27:58.127Z,11.72
2018-10-03T02:28:58.126Z,11.67
2018-10-03T02:29:58.136Z,11.72
2018-10-03T02:30:58.138Z,11.72
2018-10-03T02:31:58.146Z,11.73
2018-10-03T02:32:58.143Z,11.67
2018-10-03T02:33:58.127Z,11.60
2018-10-03T02:34:58.147Z,11.58
2018-10-03T02:35:58.143Z,11.62
2018-10-03T02:36:58.130Z,11.65
2018-10-03T02:37:58.152Z,11.62
2018-10-03T02:38:58.131Z,11.62
2018-10-03T02:39:58.126Z,11.58
2018-10-03T02:40:58.170Z,11.64
2018-10-03T02:41:58.135Z,11.70
2018-10-03T02:42:58.131Z,11.61
2018-10-03T02:43:58.141Z,11.62
2018-10-03T02:44:58.147Z,11.76
2018-10-03T02:45:58.170Z,11.69
2018-10-03T02:46:58.164Z,11.62
2018-10-03T02:47:58.166Z,11.72
2018-10-03T02:48:58.148Z,11.67
2018-10-03T02:49:58.180Z,11.73
2018-10-03T02:50:58.176Z,11.69
2018-10-03T02:51:58.210Z,11.73
2018-10-03T02:52:58.154Z,11.70
2018-10-03T02:53:58.146Z,11.72
2018-10-03T02:54:58.141Z,11.72
2018-10-03T02:55:58.159Z,11.70
2018-10-03T02:56:58.144Z,11.70
2018-10-03T02:57:58.187Z,11.64
2018-10-03T02:58:58.149Z,11.65
2018-10-03T02:59:58.157Z,11.73
2018-10-03T03:00:58.149Z,11.62
2018-10-03T03:01:58.157Z,11.73
2018-10-03T03:02:58.168Z,11.72
2018-10-03T03:03:58.177Z,11.73
2018-10-03T03:04:58.152Z,11.62
2018-10-03T03:05:58.182Z,11.78
2018-10-03T03:06:58.161Z,11.73
2018-10-03T03:07:58.178Z,11.70
2018-10-03T03:08:58.180Z,11.65
2018-10-03T03:09:58.163Z,11.76
2018-10-03T03:10:58.189Z,11.79
2018-10-03T03:11:58.152Z,11.75
2018-10-03T03:12:58.182Z,11.78
2018-10-03T03:13:58.157Z,11.78
2018-10-03T03:14:58.186Z,11.83
2018-10-03T03:15:58.168Z,11.85
2018-10-03T03:16:58.180Z,11.85
2018-10-03T03:17:58.194Z,11.80
2018-10-03T03:18:58.167Z,11.76
2018-10-03T03:19:58.161Z,11.79
2018-10-03T03:20:58.151Z,11.82
2018-10-03T03:21:58.175Z,11.83
2018-10-03T03:22:58.201Z,11.99
2018-10-03T03:23:58.164Z,11.79
2018-10-03T03:24:58.161Z,11.90
2018-10-03T03:25:58.186Z,11.86
2018-10-03T03:26:58.159Z,11.98
2018-10-03T03:27:58.192Z,11.91
2018-10-03T03:28:58.179Z,11.85
2018-10-03T03:29:58.173Z,11.94
2018-10-03T03:30:58.165Z,11.86
2018-10-03T03:31:58.190Z,11.94
2018-10-03T03:32:58.163Z,12.01
2018-10-03T03:33:58.194Z,11.99
2018-10-03T03:34:58.171Z,11.99
2018-10-03T03:35:58.177Z,11.99
2018-10-03T03:36:58.164Z,12.04
2018-10-03T03:37:58.179Z,12.01
2018-10-03T03:38:58.171Z,11.95
2018-10-03T03:39:58.192Z,11.91
2018-10-03T03:40:58.192Z,11.96
2018-10-03T03:41:58.180Z,11.90
2018-10-03T03:42:58.181Z,12.05
2018-10-03T03:43:58.180Z,12.01
2018-10-03T03:44:58.183Z,11.98
2018-10-03T03:45:58.194Z,11.99
2018-10-03T03:46:58.205Z,12.04
2018-10-03T03:47:58.187Z,12.02
2018-10-03T03:48:58.187Z,12.01
2018-10-03T03:49:58.191Z,12.02
2018-10-03T03:50:58.175Z,11.98
2018-10-03T03:51:58.195Z,11.94
2018-10-03T03:52:58.197Z,11.88
2018-10-03T03:53:58.171Z,11.88
2018-10-03T03:54:58.197Z,11.86
2018-10-03T03:55:58.185Z,11.85
2018-10-03T03:56:58.189Z,11.75
2018-10-03T03:57:58.195Z,11.75
2018-10-03T03:58:59.285Z,11.75
2018-10-03T03:59:58.195Z,11.78
2018-10-03T04:00:58.193Z,11.79
2018-10-03T04:01:58.185Z,11.75
2018-10-03T04:02:58.208Z,11.78
2018-10-03T04:03:58.214Z,11.76
2018-10-03T04:04:58.249Z,11.76
2018-10-03T04:05:58.188Z,11.82
2018-10-03T04:06:58.215Z,11.78
2018-10-03T04:07:58.214Z,11.80
2018-10-03T04:08:58.196Z,11.78
2018-10-03T04:09:58.204Z,11.85
2018-10-03T04:10:58.212Z,11.88
2018-10-03T04:11:58.197Z,11.85
2018-10-03T04:12:58.253Z,11.85
2018-10-03T04:13:58.201Z,11.86
2018-10-03T04:14:58.199Z,11.90
2018-10-03T04:15:58.194Z,11.83
2018-10-03T04:16:58.209Z,11.83
2018-10-03T04:17:58.218Z,11.76
2018-10-03T04:18:58.197Z,11.76
2018-10-03T04:19:58.204Z,11.75
2018-10-03T04:20:58.209Z,11.70
2018-10-03T04:21:58.196Z,11.75
2018-10-03T04:22:58.218Z,11.64
2018-10-03T04:23:58.205Z,11.61
2018-10-03T04:24:58.202Z,11.75
2018-10-03T04:25:58.214Z,11.67
2018-10-03T04:26:58.218Z,11.75
2018-10-03T04:27:58.202Z,11.65
2018-10-03T04:28:58.210Z,11.73
2018-10-03T04:29:58.222Z,11.65
2018-10-03T04:30:58.217Z,11.69
2018-10-03T04:31:58.213Z,11.60
2018-10-03T04:32:58.210Z,11.75
2018-10-03T04:33:58.222Z,11.67
2018-10-03T04:34:58.282Z,11.73
2018-10-03T04:35:58.220Z,11.64
2018-10-03T04:36:58.285Z,11.64
2018-10-03T04:37:58.228Z,11.60
2018-10-03T04:38:58.212Z,11.60
2018-10-03T04:39:58.217Z,11.55
2018-10-03T04:40:58.227Z,11.60
2018-10-03T04:41:58.230Z,11.62
2018-10-03T04:42:58.215Z,11.52
2018-10-03T04:43:58.226Z,11.55
2018-10-03T04:44:58.236Z,11.47
2018-10-03T04:45:58.250Z,11.44
2018-10-03T04:46:58.234Z,11.47
2018-10-03T04:47:58.231Z,11.42
2018-10-03T04:48:58.276Z,11.42
2018-10-03T04:49:58.259Z,11.37
2018-10-03T04:50:58.219Z,11.37
2018-10-03T04:51:58.272Z,11.35
2018-10-03T04:52:58.226Z,11.33
2018-10-03T04:53:58.227Z,11.35
2018-10-03T04:54:58.231Z,11.33
2018-10-03T04:55:58.231Z,11.24
2018-10-03T04:56:58.249Z,11.22
2018-10-03T04:57:58.234Z,11.29
2018-10-03T04:58:58.256Z,11.25
2018-10-03T04:59:58.235Z,11.32
2018-10-03T05:00:58.227Z,11.28
2018-10-03T05:01:58.246Z,11.19
2018-10-03T05:02:58.269Z,11.25
2018-10-03T05:03:58.222Z,11.25
2018-10-03T05:04:58.231Z,11.17
2018-10-03T05:05:58.229Z,11.22
2018-10-03T05:06:58.272Z,11.22
2018-10-03T05:07:58.229Z,11.19
2018-10-03T05:08:58.312Z,11.25
2018-10-03T05:09:58.286Z,11.24
2018-10-03T05:10:58.261Z,11.27
2018-10-03T05:11:58.244Z,11.19
2018-10-03T05:12:58.270Z,11.32
2018-10-03T05:13:58.234Z,11.27
2018-10-03T05:14:58.234Z,11.28
2018-10-03T05:15:58.242Z,11.32
2018-10-03T05:16:58.237Z,11.33
2018-10-03T05:17:58.233Z,11.35
2018-10-03T05:18:58.266Z,11.33
2018-10-03T05:19:58.248Z,11.44
2018-10-03T05:20:58.244Z,11.37
2018-10-03T05:21:58.245Z,11.42
2018-10-03T05:22:58.248Z,11.40
2018-10-03T05:23:58.251Z,11.46
2018-10-03T05:24:58.269Z,11.40
2018-10-03T05:25:58.253Z,11.35
2018-10-03T05:26:58.265Z,11.44
2018-10-03T05:27:58.286Z,11.51
2018-10-03T05:28:58.257Z,11.46
2018-10-03T05:29:58.262Z,11.47
2018-10-03T05:30:58.246Z,11.43
2018-10-03T05:31:58.257Z,11.46
2018-10-03T05:32:58.249Z,11.46
2018-10-03T05:33:58.271Z,11.39
2018-10-03T05:34:58.280Z,11.33
2018-10-03T05:35:58.267Z,11.42
2018-10-03T05:36:58.255Z,11.42
2018-10-03T05:37:58.256Z,11.42
2018-10-03T05:38:58.288Z,11.40
2018-10-03T05:39:58.264Z,11.35
2018-10-03T05:40:58.251Z,11.33
2018-10-03T05:41:58.274Z,11.29
2018-10-03T05:42:58.280Z,11.36
2018-10-03T05:43:58.266Z,11.33
2018-10-03T05:44:58.259Z,11.37
2018-10-03T05:45:58.255Z,11.27
2018-10-03T05:46:58.271Z,11.35
2018-10-03T05:47:58.245Z,11.32
2018-10-03T05:48:58.253Z,11.35
2018-10-03T05:49:58.258Z,11.33
2018-10-03T05:50:58.292Z,11.37
2018-10-03T05:51:58.258Z,11.37
2018-10-03T05:52:58.274Z,11.39
2018-10-03T05:53:58.300Z,11.35
2018-10-03T05:54:58.267Z,11.47
2018-10-03T05:55:58.281Z,11.49
2018-10-03T05:56:58.261Z,11.54
2018-10-03T05:57:58.262Z,11.52
2018-10-03T05:58:58.261Z,11.57
2018-10-03T05:59:58.271Z,11.64
2018-10-03T06:00:58.266Z,11.55
2018-10-03T06:01:58.286Z,11.57
2018-10-03T06:02:58.334Z,11.58
2018-10-03T06:03:58.302Z,11.57
2018-10-03T06:04:58.262Z,11.62
2018-10-03T06:05:58.285Z,11.65
2018-10-03T06:06:58.275Z,11.69
2018-10-03T06:07:58.281Z,11.78
2018-10-03T06:08:58.276Z,11.75
2018-10-03T06:09:58.282Z,11.79
2018-10-03T06:10:58.266Z,11.88
2018-10-03T06:11:58.271Z,11.86
2018-10-03T06:12:58.274Z,11.80
2018-10-03T06:13:58.276Z,11.88
2018-10-03T06:14:58.274Z,11.82
2018-10-03T06:15:58.279Z,11.95
2018-10-03T06:16:58.273Z,11.88
2018-10-03T06:17:58.310Z,11.90
2018-10-03T06:18:58.293Z,11.94
2018-10-03T06:19:58.297Z,12.04
2018-10-03T06:20:58.282Z,12.10
2018-10-03T06:21:58.289Z,12.14
2018-10-03T06:22:58.321Z,12.16
2018-10-03T06:23:58.272Z,12.17
2018-10-03T06:24:58.275Z,12.20
2018-10-03T06:25:58.272Z,12.13
2018-10-03T06:26:58.279Z,12.14
2018-10-03T06:27:58.377Z,12.07
2018-10-03T06:28:58.292Z,12.12
2018-10-03T06:29:58.294Z,12.01
2018-10-03T06:30:58.272Z,12.04
2018-10-03T06:31:58.287Z,12.04
2018-10-03T06:32:58.288Z,12.07
2018-10-03T06:33:58.318Z,12.05
2018-10-03T06:34:58.290Z,12.02
2018-10-03T06:35:58.318Z,12.12
2018-10-03T06:36:58.288Z,12.16
2018-10-03T06:37:58.313Z,12.13
2018-10-03T06:38:58.292Z,12.20
2018-10-03T06:39:58.328Z,12.23
2018-10-03T06:40:58.305Z,12.29
2018-10-03T06:41:58.314Z,12.31
2018-10-03T06:42:58.293Z,12.29
2018-10-03T06:43:58.314Z,12.38
2018-10-03T06:44:58.293Z,12.35
2018-10-03T06:45:58.310Z,12.45
2018-10-03T06:46:58.291Z,12.50
2018-10-03T06:47:58.313Z,12.52
2018-10-03T06:48:58.295Z,12.41
2018-10-03T06:49:58.309Z,12.41
2018-10-03T06:50:58.368Z,12.41
2018-10-03T06:51:58.302Z,12.50
2018-10-03T06:52:58.331Z,12.45
2018-10-03T06:53:58.335Z,12.53
2018-10-03T06:54:58.361Z,12.57
2018-10-03T06:55:58.323Z,12.64
2018-10-03T06:56:58.366Z,12.72
2018-10-03T06:57:58.432Z,12.75
2018-10-03T06:58:58.333Z,12.71
2018-10-03T06:59:58.314Z,12.72
2018-10-03T07:00:58.302Z,12.74
2018-10-03T07:01:58.328Z,12.82
2018-10-03T07:02:58.310Z,12.87
2018-10-03T07:03:58.318Z,12.77
2018-10-03T07:04:58.318Z,12.77
2018-10-03T07:05:58.328Z,12.83
2018-10-03T07:06:58.339Z,12.85
2018-10-03T07:07:58.360Z,12.92
2018-10-03T07:08:58.321Z,12.78
2018-10-03T07:09:58.328Z,12.90
2018-10-03T07:10:58.325Z,12.83
2018-10-03T07:11:58.333Z,12.97
2018-10-03T07:12:58.348Z,12.96
2018-10-03T07:13:58.344Z,13.03
2018-10-03T07:14:58.345Z,13.20
2018-10-03T07:15:58.323Z,13.25
2018-10-03T07:16:58.319Z,13.29
2018-10-03T07:17:58.362Z,13.33
2018-10-03T07:18:58.341Z,13.30
2018-10-03T07:19:58.380Z,13.29
2018-10-03T07:20:58.349Z,13.32
2018-10-03T07:21:58.335Z,13.38
2018-10-03T07:22:58.351Z,13.44
2018-10-03T07:23:58.352Z,13.38
2018-10-03T07:24:58.330Z,13.39
2018-10-03T07:25:58.375Z,13.52
2018-10-03T07:26:58.337Z,13.63
2018-10-03T07:27:58.356Z,13.39
2018-10-03T07:28:58.355Z,13.55
2018-10-03T07:29:58.367Z,13.63
2018-10-03T07:30:58.339Z,13.79
2018-10-03T07:31:58.407Z,13.85
2018-10-03T07:32:58.356Z,13.79
2018-10-03T07:33:58.373Z,14.04
2018-10-03T07:34:58.397Z,14.02
2018-10-03T07:35:58.365Z,14.07
2018-10-03T07:36:58.365Z,14.10
2018-10-03T07:37:58.367Z,14.04
2018-10-03T07:38:58.376Z,14.10
2018-10-03T07:39:58.362Z,14.24
2018-10-03T07:40:58.370Z,14.39
2018-10-03T07:41:58.358Z,14.54
2018-10-03T07:42:58.408Z,14.65
2018-10-03T07:43:58.415Z,14.62
2018-10-03T07:44:58.387Z,14.81
2018-10-03T07:45:58.375Z,15.14
2018-10-03T07:46:58.397Z,15.29
2018-10-03T07:47:58.435Z,15.35
2018-10-03T07:48:58.399Z,15.64
2018-10-03T07:49:58.406Z,15.80
2018-10-03T07:50:58.379Z,15.90
2018-10-03T07:51:58.421Z,15.87
2018-10-03T07:52:58.380Z,16.31
2018-10-03T07:53:58.383Z,16.28
2018-10-03T07:54:58.373Z,16.09
2018-10-03T07:55:58.409Z,16.25
2018-10-03T07:56:58.386Z,16.04
2018-10-03T07:57:58.404Z,16.41
2018-10-03T07:58:58.509Z,16.02
2018-10-03T07:59:58.379Z,15.86
2018-10-03T08:00:58.437Z,15.74
2018-10-03T08:01:58.408Z,15.86
2018-10-03T08:02:58.405Z,15.92
2018-10-03T08:03:58.400Z,15.80
2018-10-03T08:04:58.411Z,15.93
2018-10-03T08:05:58.420Z,16.14
2018-10-03T08:06:58.406Z,16.23
2018-10-03T08:07:58.410Z,16.02
2018-10-03T08:08:58.482Z,15.97
2018-10-03T08:09:58.451Z,16.38
2018-10-03T08:10:58.449Z,16.35
2018-10-03T08:11:58.416Z,16.56
2018-10-03T08:12:58.434Z,16.42
2018-10-03T08:13:58.423Z,16.35
2018-10-03T08:14:58.460Z,16.08
2018-10-03T08:15:58.423Z,16.20
2018-10-03T08:16:58.474Z,16.17
2018-10-03T08:17:58.435Z,16.02
2018-10-03T08:18:58.431Z,16.00
2018-10-03T08:19:58.423Z,16.12
2018-10-03T08:20:58.452Z,16.25
2018-10-03T08:21:58.443Z,16.15
2018-10-03T08:22:58.434Z,16.24
2018-10-03T08:23:58.438Z,16.21
2018-10-03T08:24:58.445Z,16.30
2018-10-03T08:25:58.443Z,16.09
2018-10-03T08:26:58.453Z,16.05
2018-10-03T08:27:58.458Z,16.02
2018-10-03T08:28:58.452Z,16.08
2018-10-03T08:29:58.459Z,16.02
2018-10-03T08:30:58.447Z,15.90
2018-10-03T08:31:58.462Z,16.09
2018-10-03T08:32:58.569Z,16.48
2018-10-03T08:33:58.480Z,16.71
2018-10-03T08:34:58.504Z,16.93
2018-10-03T08:35:58.473Z,16.98
2018-10-03T08:36:58.476Z,16.97
2018-10-03T08:37:58.477Z,16.24
2018-10-03T08:38:58.476Z,16.42
2018-10-03T08:39:58.470Z,17.46
2018-10-03T08:40:58.474Z,17.68
2018-10-03T08:41:58.476Z,17.43
2018-10-03T08:42:58.487Z,17.86
2018-10-03T08:43:58.478Z,18.07
2018-10-03T08:44:58.503Z,17.52
2018-10-03T08:45:58.507Z,17.18
2018-10-03T08:46:58.481Z,17.16
2018-10-03T08:47:58.492Z,16.97
2018-10-03T08:48:58.492Z,16.86
2018-10-03T08:49:58.520Z,17.16
2018-10-03T08:50:58.490Z,17.70
2018-10-03T08:51:58.611Z,18.66
2018-10-03T08:52:58.521Z,18.54
2018-10-03T08:53:58.501Z,18.65
2018-10-03T08:54:58.526Z,18.63
2018-10-03T08:55:58.518Z,18.82
2018-10-03T08:56:58.544Z,19.48
2018-10-03T08:57:58.563Z,19.96
2018-10-03T08:58:58.535Z,19.83
2018-10-03T08:59:58.531Z,20.73
2018-10-03T09:00:58.548Z,21.34
2018-10-03T09:01:58.524Z,20.87
2018-10-03T09:02:58.531Z,20.99
2018-10-03T09:03:58.532Z,21.27
2018-10-03T09:04:58.542Z,21.67
2018-10-03T09:05:58.555Z,21.75
2018-10-03T09:06:58.555Z,21.59
2018-10-03T09:07:58.561Z,22.14
2018-10-03T09:08:58.597Z,21.40
2018-10-03T09:09:58.548Z,21.40
2018-10-03T09:10:58.577Z,21.27
2018-10-03T09:11:58.569Z,21.01
2018-10-03T09:12:58.581Z,21.07
2018-10-03T09:13:58.587Z,21.37
2018-10-03T09:14:58.590Z,21.67
2018-10-03T09:15:58.590Z,21.98
2018-10-03T09:16:58.582Z,22.37
2018-10-03T09:17:58.595Z,22.83
2018-10-03T09:18:58.598Z,22.07
2018-10-03T09:19:58.612Z,22.27
2018-10-03T09:20:58.594Z,22.37
2018-10-03T09:21:58.673Z,22.60
2018-10-03T09:22:58.634Z,22.28
2018-10-03T09:23:58.654Z,21.31
2018-10-03T09:24:58.616Z,21.50
2018-10-03T09:25:58.620Z,21.46
2018-10-03T09:26:58.630Z,21.49
2018-10-03T09:27:58.644Z,21.67
2018-10-03T09:28:58.663Z,21.58
2018-10-03T09:29:58.651Z,21.49
2018-10-03T09:30:58.662Z,21.24
2018-10-03T09:31:58.668Z,21.71
2018-10-03T09:32:58.683Z,21.61
2018-10-03T09:33:58.702Z,21.54
2018-10-03T09:34:58.699Z,21.99
2018-10-03T09:35:58.694Z,22.36
2018-10-03T09:36:58.707Z,21.72
2018-10-03T09:37:58.692Z,21.07
2018-10-03T09:38:58.705Z,21.22
2018-10-03T09:39:58.733Z,21.12
2018-10-03T09:40:58.717Z,20.87
2018-10-03T09:41:58.759Z,20.67
2018-10-03T09:42:58.728Z,20.79
2018-10-03T09:43:58.743Z,20.55
2018-10-03T09:44:58.766Z,20.95
2018-10-03T09:45:58.787Z,21.47
2018-10-03T09:46:58.778Z,22.05
2018-10-03T09:47:58.782Z,22.45
2018-10-03T09:48:58.787Z,22.49
2018-10-03T09:49:58.780Z,22.77
2018-10-03T09:50:58.807Z,22.37
2018-10-03T09:51:58.803Z,22.36
2018-10-03T09:52:58.811Z,22.39
2018-10-03T09:53:58.805Z,22.35
2018-10-03T09:54:58.828Z,22.46
2018-10-03T09:55:58.843Z,22.52
2018-10-03T09:56:58.896Z,21.54
2018-10-03T09:57:58.830Z,21.47
2018-10-03T09:58:58.874Z,22.06
2018-10-03T09:59:58.854Z,22.65
2018-10-03T10:00:58.960Z,22.64
2018-10-03T10:01:58.895Z,23.04
2018-10-03T10:02:58.871Z,23.17
2018-10-03T10:03:58.885Z,22.83
2018-10-03T10:04:58.912Z,22.20
2018-10-03T10:05:58.892Z,22.02
2018-10-03T10:06:58.919Z,22.52
2018-10-03T10:07:58.903Z,23.00
2018-10-03T10:08:58.930Z,23.33
2018-10-03T10:09:58.982Z,22.58
2018-10-03T10:10:58.980Z,22.58
2018-10-03T10:11:58.948Z,21.96
2018-10-03T10:12:58.974Z,22.43
2018-10-03T10:13:58.968Z,22.85
2018-10-03T10:14:58.994Z,22.17
2018-10-03T10:15:58.972Z,22.05
2018-10-03T10:16:58.994Z,22.64
2018-10-03T10:17:59.018Z,22.70
2018-10-03T10:18:59.015Z,22.60
2018-10-03T10:19:59.018Z,22.61
2018-10-03T10:20:59.070Z,22.80
2018-10-03T10:21:59.057Z,23.04
2018-10-03T10:22:59.082Z,23.66
2018-10-03T10:23:59.064Z,23.91
2018-10-03T10:24:59.085Z,23.31
2018-10-03T10:25:59.073Z,23.05
2018-10-03T10:26:59.066Z,23.07
2018-10-03T10:27:59.073Z,23.12
2018-10-03T10:28:59.116Z,22.95
2018-10-03T10:29:59.088Z,22.64
2018-10-03T10:30:59.102Z,23.05
2018-10-03T10:31:59.163Z,23.48
2018-10-03T10:32:59.475Z,23.58
2018-10-03T10:33:59.141Z,22.76
2018-10-03T10:34:59.134Z,23.04
2018-10-03T10:35:59.147Z,23.35
2018-10-03T10:36:59.186Z,23.31
2018-10-03T10:37:59.187Z,23.48
2018-10-03T10:38:59.185Z,23.84
2018-10-03T10:39:59.228Z,23.07
2018-10-03T10:40:59.202Z,22.39
2018-10-03T10:41:59.199Z,21.92
2018-10-03T10:42:59.230Z,22.35
2018-10-03T10:43:59.228Z,23.07
2018-10-03T10:44:59.240Z,23.23
2018-10-03T10:45:59.261Z,22.37
2018-10-03T10:46:59.247Z,22.17
2018-10-03T10:47:59.249Z,22.73
2018-10-03T10:48:59.278Z,22.54
2018-10-03T10:49:59.289Z,22.03
2018-10-03T10:50:59.309Z,21.03
2018-10-03T10:51:59.312Z,20.38
2018-10-03T10:52:59.312Z,20.05
2018-10-03T10:53:59.314Z,19.44
2018-10-03T10:54:59.329Z,18.63
2018-10-03T10:55:59.351Z,18.70
2018-10-03T10:56:59.345Z,19.41
2018-10-03T10:57:59.513Z,19.88
2018-10-03T10:58:59.349Z,20.82
2018-10-03T10:59:59.417Z,21.12
2018-10-03T11:00:59.389Z,21.38
2018-10-03T11:01:59.384Z,22.18
2018-10-03T11:02:59.408Z,22.62
2018-10-03T11:03:59.392Z,22.49
2018-10-03T11:04:59.410Z,22.18
2018-10-03T11:05:59.425Z,21.56
2018-10-03T11:06:59.445Z,21.29
2018-10-03T11:07:59.419Z,21.75
2018-10-03T11:08:59.458Z,21.56
2018-10-03T11:09:59.482Z,21.56
2018-10-03T11:10:59.472Z,21.71
2018-10-03T11:11:59.520Z,22.27
2018-10-03T11:12:59.521Z,22.49
2018-10-03T11:13:59.481Z,21.58
2018-10-03T11:14:59.512Z,21.72
2018-10-03T11:15:59.563Z,21.21
2018-10-03T11:16:59.580Z,21.12
2018-10-03T11:17:59.545Z,20.85
2018-10-03T11:18:59.519Z,20.33
2018-10-03T11:19:59.541Z,19.51
2018-10-03T11:20:59.558Z,19.55
2018-10-03T11:21:59.593Z,19.58
2018-10-03T11:22:59.550Z,19.22
2018-10-03T11:23:59.790Z,18.81
2018-10-03T11:24:59.599Z,18.57
2018-10-03T11:25:59.613Z,18.58
2018-10-03T11:26:59.581Z,18.47
2018-10-03T11:27:59.590Z,19.04
2018-10-03T11:28:59.624Z,18.98
2018-10-03T11:29:59.614Z,18.95
2018-10-03T11:30:59.607Z,19.02
2018-10-03T11:31:59.642Z,19.13
2018-10-03T11:32:59.662Z,19.22
2018-10-03T11:33:59.639Z,19.13
2018-10-03T11:34:59.624Z,18.98
2018-10-03T11:35:59.628Z,19.07
2018-10-03T11:36:59.667Z,19.21
2018-10-03T11:37:59.637Z,19.37
2018-10-03T11:38:59.661Z,19.26
2018-10-03T11:39:59.674Z,18.92
2018-10-03T11:40:59.674Z,19.13
2018-10-03T11:41:59.681Z,18.94
2018-10-03T11:42:59.694Z,19.06
2018-10-03T11:43:59.744Z,18.84
2018-10-03T11:44:59.666Z,18.78
2018-10-03T11:45:59.725Z,18.82
2018-10-03T11:46:59.684Z,18.73
2018-10-03T11:47:59.755Z,18.69
2018-10-03T11:48:59.696Z,18.94
2018-10-03T11:49:59.767Z,18.84
2018-10-03T11:50:59.683Z,18.94
2018-10-03T11:51:59.746Z,19.11
2018-10-03T11:52:59.702Z,19.14
2018-10-03T11:53:59.692Z,19.22
2018-10-03T11:54:59.714Z,19.39
2018-10-03T11:55:59.715Z,19.48
2018-10-03T11:56:59.764Z,19.25
2018-10-03T11:57:59.737Z,19.14
2018-10-03T11:58:59.736Z,19.08
2018-10-03T11:59:59.742Z,18.90
2018-10-03T12:00:59.745Z,18.78
2018-10-03T12:01:59.745Z,18.51
2018-10-03T12:02:59.774Z,18.45
2018-10-03T12:03:59.748Z,18.51
2018-10-03T12:04:59.747Z,18.65
2018-10-03T12:05:59.748Z,18.82
2018-10-03T12:06:59.752Z,19.11
2018-10-03T12:07:59.770Z,19.21
2018-10-03T12:08:59.768Z,19.31
2018-10-03T12:09:59.762Z,19.28
2018-10-03T12:10:59.833Z,18.99
2018-10-03T12:11:59.795Z,18.94
2018-10-03T12:12:59.795Z,18.70
2018-10-03T12:13:59.772Z,18.58
2018-10-03T12:14:59.777Z,18.42
2018-10-03T12:15:59.784Z,18.41
2018-10-03T12:16:59.804Z,18.32
2018-10-03T12:17:59.886Z,18.32
2018-10-03T12:18:59.801Z,18.30
2018-10-03T12:19:59.830Z,18.25
2018-10-03T12:20:59.870Z,18.12
2018-10-03T12:21:59.823Z,18.21
2018-10-03T12:22:59.819Z,18.37
2018-10-03T12:23:59.808Z,18.18
2018-10-03T12:24:59.808Z,18.25
2018-10-03T12:25:59.801Z,18.21
2018-10-03T12:26:59.813Z,18.35
2018-10-03T12:27:59.815Z,18.35
2018-10-03T12:28:59.809Z,18.52
2018-10-03T12:29:59.819Z,18.36
2018-10-03T12:30:59.833Z,18.44
2018-10-03T12:31:59.815Z,18.73
2018-10-03T12:32:59.827Z,18.76
2018-10-03T12:33:59.871Z,18.60
2018-10-03T12:34:59.810Z,18.69
2018-10-03T12:35:59.888Z,18.70
2018-10-03T12:36:59.852Z,18.54
2018-10-03T12:37:59.889Z,18.36
2018-10-03T12:38:59.848Z,18.32
2018-10-03T12:39:59.874Z,18.35
2018-10-03T12:40:59.876Z,18.27
2018-10-03T12:41:59.834Z,18.15
2018-10-03T12:42:59.861Z,17.82
2018-10-03T12:43:59.890Z,17.92
2018-10-03T12:44:59.968Z,18.02
2018-10-03T12:45:59.862Z,17.82
2018-10-03T12:46:59.905Z,17.79
2018-10-03T12:47:59.923Z,17.84
2018-10-03T12:48:59.895Z,17.70
2018-10-03T12:49:59.883Z,17.62
2018-10-03T12:50:59.880Z,17.54
2018-10-03T12:51:59.914Z,17.74
2018-10-03T12:52:59.901Z,17.72